Terminal Aerodrome Forecast
Issued by NWS Nashville, TN

Home | Current Version | Previous Version | Text Only | Print | Product List | Glossary On
Versions: 1 2 3 4 5 6 7 8 9 10 11 12 13 14
000
FTUS44 KOHX 241140
TAFBNA
TAF
KBNA 241140Z 2412/2512 19006KT P6SM BKN250
     FM241900 20006KT P6SM VCTS BKN045CB BKN080
     FM250100 18004KT P6SM SCT100 BKN250=

USA.gov is the U.S. government's official web portal to all federal, state and local government web resources and services.